Time;durP1;ratioP1;P1;durP2;ratioP2;P2;SDS_P1;SDS_P2;PMS_P1;PMS_P2;Temp;Humidity;BMP_temperature;BMP_pressure;BME280_temperature;BME280_humidity;BME280_pressure;Samples;Min_cycle;Max_cycle;Signal;HPM_P1;HPM_P2
2021/08/11 00:00:16;;;;;;;5.65;5.15;;;;;;;;;;5076702;28;20120;-77
2021/08/11 00:02:42;;;;;;;11.60;5.13;;;;;;;;;;5076534;28;20465;-76
2021/08/11 00:05:08;;;;;;;5.35;4.85;;;;;;;;;;5076160;28;20135;-74
2021/08/11 00:07:34;;;;;;;5.07;4.53;;;;;;;;;;5076241;28;20020;-73
2021/08/11 00:10:02;;;;;;;4.88;4.38;;;;;;;;;;5076487;28;20096;-74
2021/08/11 00:12:28;;;;;;;8.13;5.32;;;;;;;;;;5076119;28;20036;-74
2021/08/11 00:14:54;;;;;;;7.03;5.65;;;;;;;;;;5076181;28;20051;-74
2021/08/11 00:17:20;;;;;;;6.10;4.55;;;;;;;;;;5075946;28;20546;-76
2021/08/11 00:19:46;;;;;;;4.88;4.47;;;;;;;;;;5075757;28;20029;-74
2021/08/11 00:22:12;;;;;;;5.00;4.35;;;;;;;;;;5075857;28;20454;-74
2021/08/11 00:24:38;;;;;;;5.38;4.88;;;;;;;;;;5076150;28;20469;-74
2021/08/11 00:27:05;;;;;;;6.10;5.60;;;;;;;;;;5076025;28;20082;-73
2021/08/11 00:29:31;;;;;;;6.55;5.90;;;;;;;;;;5076085;28;20424;-76
2021/08/11 00:31:57;;;;;;;6.97;5.43;;;;;;;;;;5075869;28;20449;-74
2021/08/11 00:34:23;;;;;;;6.63;5.03;;;;;;;;;;5076119;28;20489;-76
2021/08/11 00:36:49;;;;;;;7.70;5.85;;;;;;;;;;5076409;28;20470;-76
2021/08/11 00:39:15;;;;;;;6.32;5.28;;;;;;;;;;5075901;28;20540;-76
2021/08/11 00:41:44;;;;;;;7.53;4.38;;;;;;;;;;5075914;28;20020;-76
2021/08/11 00:44:11;;;;;;;7.13;4.70;;;;;;;;;;5075773;28;20382;-76
2021/08/11 00:46:40;;;;;;;6.07;5.47;;;;;;;;;;5075848;28;20020;-75
2021/08/11 00:49:06;;;;;;;6.03;5.10;;;;;;;;;;5075503;28;20467;-76
2021/08/11 00:51:32;;;;;;;8.15;5.25;;;;;;;;;;5076026;28;20452;-76
2021/08/11 00:53:58;;;;;;;5.78;4.80;;;;;;;;;;5075938;28;20466;-76
2021/08/11 00:56:24;;;;;;;5.20;4.70;;;;;;;;;;5075246;28;20513;-76
2021/08/11 00:58:50;;;;;;;5.68;4.93;;;;;;;;;;5075390;28;20028;-74
2021/08/11 01:01:17;;;;;;;4.63;4.22;;;;;;;;;;5074899;28;20090;-74
2021/08/11 01:03:43;;;;;;;9.40;4.80;;;;;;;;;;5075173;28;20042;-74
2021/08/11 01:06:09;;;;;;;14.95;4.47;;;;;;;;;;5075212;28;20020;-74
2021/08/11 01:08:35;;;;;;;5.95;4.45;;;;;;;;;;5075546;28;20107;-73
2021/08/11 01:11:01;;;;;;;5.65;5.05;;;;;;;;;;5075103;28;20033;-74
2021/08/11 01:13:27;;;;;;;7.82;5.03;;;;;;;;;;5074498;28;20559;-74
2021/08/11 01:15:54;;;;;;;5.80;4.82;;;;;;;;;;5074949;28;20482;-74
2021/08/11 01:18:21;;;;;;;4.70;4.30;;;;;;;;;;5074565;28;20071;-74
2021/08/11 01:20:50;;;;;;;5.15;4.57;;;;;;;;;;5075157;28;20029;-77
2021/08/11 01:23:17;;;;;;;6.43;4.22;;;;;;;;;;5075233;28;20229;-76
2021/08/11 01:25:44;;;;;;;10.50;4.38;;;;;;;;;;5075296;28;20029;-76
2021/08/11 01:28:29;;;;;;;5.13;3.97;;;;;;;;;;5075025;28;20536;-76
2021/08/11 01:31:12;;;;;;;6.75;4.70;;;;;;;;;;5074946;28;20047;-76
2021/08/11 01:33:45;;;;;;;4.07;3.67;;;;;;;;;;5075716;28;20163;-76
2021/08/11 01:36:16;;;;;;;4.88;4.38;;;;;;;;;;5075128;28;20031;-73
2021/08/11 01:38:43;;;;;;;4.93;4.45;;;;;;;;;;5074853;28;20027;-74
2021/08/11 01:41:09;;;;;;;4.07;3.60;;;;;;;;;;5074336;28;20367;-74
2021/08/11 01:43:37;;;;;;;6.50;4.97;;;;;;;;;;5074581;28;20362;-74
2021/08/11 01:46:03;;;;;;;6.45;4.10;;;;;;;;;;5074681;28;20421;-74
2021/08/11 01:48:30;;;;;;;5.28;4.65;;;;;;;;;;5074718;28;20532;-74
2021/08/11 01:50:56;;;;;;;11.02;4.57;;;;;;;;;;5074051;28;20037;-74
2021/08/11 01:53:22;;;;;;;6.40;3.83;;;;;;;;;;5074475;28;20032;-74
2021/08/11 01:55:49;;;;;;;4.72;3.90;;;;;;;;;;5074508;28;20055;-74
2021/08/11 01:58:15;;;;;;;9.73;3.47;;;;;;;;;;5074208;28;20363;-74
2021/08/11 02:00:41;;;;;;;4.85;4.38;;;;;;;;;;5074207;28;20370;-74
2021/08/11 02:03:07;;;;;;;4.32;4.03;;;;;;;;;;5074268;28;20028;-75
2021/08/11 02:05:33;;;;;;;4.25;3.85;;;;;;;;;;5074812;28;20051;-76
2021/08/11 02:08:00;;;;;;;8.45;4.03;;;;;;;;;;5074486;28;20476;-76
2021/08/11 02:10:27;;;;;;;5.32;4.30;;;;;;;;;;5074257;28;20023;-76
2021/08/11 02:12:53;;;;;;;5.40;4.18;;;;;;;;;;5074431;28;20024;-76
2021/08/11 02:15:19;;;;;;;13.13;4.07;;;;;;;;;;5074339;28;20467;-76
2021/08/11 02:17:45;;;;;;;8.93;4.47;;;;;;;;;;5074460;28;20043;-76
2021/08/11 02:20:12;;;;;;;5.55;5.05;;;;;;;;;;5074532;28;20035;-75
2021/08/11 02:22:38;;;;;;;5.50;4.85;;;;;;;;;;5073854;28;20027;-76
2021/08/11 02:25:04;;;;;;;4.15;3.75;;;;;;;;;;5073168;28;20032;-75
2021/08/11 02:27:32;;;;;;;4.10;3.70;;;;;;;;;;5074139;28;20460;-75
2021/08/11 02:30:14;;;;;;;5.55;4.05;;;;;;;;;;5074133;28;20059;-74
2021/08/11 02:33:00;;;;;;;4.68;4.28;;;;;;;;;;5074611;28;20386;-74
2021/08/11 02:35:27;;;;;;;5.57;3.63;;;;;;;;;;5059364;28;20024;-77
2021/08/11 02:37:58;;;;;;;8.70;4.30;;;;;;;;;;5074988;28;20021;-76
2021/08/11 02:40:29;;;;;;;7.05;4.32;;;;;;;;;;5074488;28;20024;-75
2021/08/11 02:43:04;;;;;;;5.32;4.50;;;;;;;;;;5074335;28;20028;-76
2021/08/11 02:45:31;;;;;;;5.60;4.28;;;;;;;;;;5074297;28;20028;-75
2021/08/11 02:47:57;;;;;;;4.15;3.75;;;;;;;;;;5073996;28;20077;-76
2021/08/11 02:50:23;;;;;;;7.85;4.20;;;;;;;;;;5073596;28;20355;-74
2021/08/11 02:52:49;;;;;;;4.60;4.05;;;;;;;;;;5073855;28;20104;-73
2021/08/11 02:55:15;;;;;;;4.97;4.03;;;;;;;;;;5073298;28;20048;-74
2021/08/11 02:57:41;;;;;;;5.15;3.75;;;;;;;;;;5073681;28;20103;-74
2021/08/11 03:00:07;;;;;;;4.35;3.95;;;;;;;;;;5073741;28;20021;-74
2021/08/11 03:02:33;;;;;;;4.45;4.05;;;;;;;;;;5073444;28;20031;-75
2021/08/11 03:04:59;;;;;;;6.55;4.50;;;;;;;;;;5073530;28;20094;-74
2021/08/11 03:07:25;;;;;;;5.95;4.53;;;;;;;;;;5073551;28;20024;-74
2021/08/11 03:09:52;;;;;;;7.97;4.50;;;;;;;;;;5073480;28;20071;-74
2021/08/11 03:12:18;;;;;;;6.88;4.90;;;;;;;;;;5073440;28;20036;-74
2021/08/11 03:14:44;;;;;;;9.45;5.97;;;;;;;;;;5073348;28;20033;-74
2021/08/11 03:17:11;;;;;;;17.52;6.63;;;;;;;;;;5073001;28;20028;-75
2021/08/11 03:19:37;;;;;;;13.75;7.30;;;;;;;;;;5074088;28;20036;-74
2021/08/11 03:22:03;;;;;;;20.38;7.50;;;;;;;;;;5074096;28;20355;-74
2021/08/11 03:24:29;;;;;;;9.55;6.25;;;;;;;;;;5073630;28;20040;-74
2021/08/11 03:26:55;;;;;;;13.65;6.85;;;;;;;;;;5073501;28;20484;-74
2021/08/11 03:29:22;;;;;;;11.55;6.70;;;;;;;;;;5073010;28;20048;-74
2021/08/11 03:31:48;;;;;;;16.40;6.43;;;;;;;;;;5072959;28;20047;-74
2021/08/11 03:34:14;;;;;;;23.13;8.55;;;;;;;;;;5073379;28;20020;-74
2021/08/11 03:36:40;;;;;;;11.77;6.72;;;;;;;;;;5075147;28;20477;-74
2021/08/11 03:39:06;;;;;;;8.95;5.90;;;;;;;;;;5076838;28;20348;-74
2021/08/11 03:41:32;;;;;;;8.60;6.68;;;;;;;;;;5076954;28;20028;-74
2021/08/11 03:43:58;;;;;;;10.55;6.55;;;;;;;;;;5077185;28;20032;-74
2021/08/11 03:46:24;;;;;;;7.50;5.50;;;;;;;;;;5076999;28;20024;-76
2021/08/11 03:48:50;;;;;;;13.32;6.03;;;;;;;;;;5076541;28;20024;-73
2021/08/11 03:51:16;;;;;;;14.80;5.85;;;;;;;;;;5076694;28;20051;-74
2021/08/11 03:53:42;;;;;;;14.68;7.93;;;;;;;;;;5076656;28;20128;-74
2021/08/11 03:56:08;;;;;;;8.43;5.28;;;;;;;;;;5076307;28;20542;-74
2021/08/11 03:58:34;;;;;;;12.30;6.40;;;;;;;;;;5076334;28;20028;-74
2021/08/11 04:01:01;;;;;;;7.35;5.68;;;;;;;;;;5076540;28;20033;-75
2021/08/11 04:03:27;;;;;;;10.25;7.22;;;;;;;;;;5076384;28;20029;-74
2021/08/11 04:05:53;;;;;;;9.52;6.45;;;;;;;;;;5076355;28;20021;-74
2021/08/11 04:08:19;;;;;;;16.90;6.80;;;;;;;;;;5076728;28;20035;-74
2021/08/11 04:10:46;;;;;;;10.02;7.38;;;;;;;;;;5076608;28;20167;-74
2021/08/11 04:13:14;;;;;;;17.13;6.57;;;;;;;;;;5076372;28;20029;-73
2021/08/11 04:15:41;;;;;;;15.25;7.40;;;;;;;;;;5076342;28;20024;-74
2021/08/11 04:18:07;;;;;;;7.20;6.32;;;;;;;;;;5075914;28;20052;-74
2021/08/11 04:20:33;;;;;;;15.40;7.38;;;;;;;;;;5076205;28;20370;-74
2021/08/11 04:22:59;;;;;;;10.02;5.75;;;;;;;;;;5076322;28;20060;-74
2021/08/11 04:25:25;;;;;;;10.13;5.72;;;;;;;;;;5076337;28;20036;-74
2021/08/11 04:27:51;;;;;;;10.57;6.40;;;;;;;;;;5075730;28;20025;-74
2021/08/11 04:30:17;;;;;;;13.18;6.60;;;;;;;;;;5075939;28;20024;-74
2021/08/11 04:32:43;;;;;;;6.80;5.18;;;;;;;;;;5075643;28;20124;-73
2021/08/11 04:35:10;;;;;;;5.97;5.38;;;;;;;;;;5075926;28;20027;-74
2021/08/11 04:37:36;;;;;;;12.63;5.68;;;;;;;;;;5075737;28;20024;-73
2021/08/11 04:40:03;;;;;;;8.15;5.65;;;;;;;;;;5076114;28;20470;-75
2021/08/11 04:42:29;;;;;;;6.15;5.03;;;;;;;;;;5075698;28;20039;-75
2021/08/11 04:44:55;;;;;;;12.15;5.43;;;;;;;;;;5075871;28;20486;-77
2021/08/11 04:47:21;;;;;;;5.78;4.90;;;;;;;;;;5074804;28;20818;-74
2021/08/11 04:49:47;;;;;;;5.68;5.18;;;;;;;;;;5076177;28;20025;-74
2021/08/11 04:52:14;;;;;;;6.57;5.22;;;;;;;;;;5076017;28;20059;-75
2021/08/11 04:54:40;;;;;;;7.03;6.43;;;;;;;;;;5075845;28;20469;-76
2021/08/11 04:57:06;;;;;;;5.32;4.82;;;;;;;;;;5076185;28;20085;-75
2021/08/11 04:59:32;;;;;;;5.47;4.97;;;;;;;;;;5075668;28;20104;-76
2021/08/11 05:01:58;;;;;;;4.47;4.07;;;;;;;;;;5075441;28;20036;-76
2021/08/11 05:04:24;;;;;;;6.38;5.55;;;;;;;;;;5075722;28;20115;-76
2021/08/11 05:06:50;;;;;;;7.88;5.93;;;;;;;;;;5075600;28;20078;-74
2021/08/11 05:09:16;;;;;;;8.13;5.07;;;;;;;;;;5075591;28;20024;-74
2021/08/11 05:11:43;;;;;;;9.20;5.20;;;;;;;;;;5076066;28;20028;-74
2021/08/11 05:14:09;;;;;;;7.88;5.55;;;;;;;;;;5075152;28;20111;-74
2021/08/11 05:16:35;;;;;;;9.02;5.72;;;;;;;;;;5074910;28;20016;-74
2021/08/11 05:19:01;;;;;;;9.20;5.63;;;;;;;;;;5074979;28;20036;-75
2021/08/11 05:21:27;;;;;;;9.27;4.70;;;;;;;;;;5075382;28;20031;-73
2021/08/11 05:23:53;;;;;;;6.82;5.47;;;;;;;;;;5075341;28;20362;-74
2021/08/11 05:26:19;;;;;;;13.75;6.63;;;;;;;;;;5074946;28;20167;-73
2021/08/11 05:28:47;;;;;;;7.53;6.13;;;;;;;;;;5074768;28;20032;-73
2021/08/11 05:31:13;;;;;;;14.45;6.53;;;;;;;;;;5057223;28;20059;-74
2021/08/11 05:33:39;;;;;;;7.80;4.78;;;;;;;;;;5056574;28;20124;-75
2021/08/11 05:36:05;;;;;;;5.15;4.68;;;;;;;;;;5073988;28;20046;-74
2021/08/11 05:38:31;;;;;;;10.35;6.28;;;;;;;;;;5073553;28;20055;-73
2021/08/11 05:40:59;;;;;;;7.20;6.35;;;;;;;;;;5070069;28;20033;-75
2021/08/11 05:43:25;;;;;;;6.85;5.78;;;;;;;;;;5066151;28;20033;-72
2021/08/11 05:45:51;;;;;;;7.75;5.10;;;;;;;;;;5053533;28;20033;-73
2021/08/11 05:48:19;;;;;;;5.05;4.55;;;;;;;;;;5071824;28;20553;-79
2021/08/11 05:50:45;;;;;;;13.95;4.88;;;;;;;;;;5074718;28;20029;-76
2021/08/11 05:53:11;;;;;;;5.15;4.43;;;;;;;;;;5074944;28;20067;-76
2021/08/11 05:55:37;;;;;;;5.45;3.88;;;;;;;;;;5073675;28;20402;-76
2021/08/11 05:58:03;;;;;;;7.05;4.53;;;;;;;;;;5075597;28;20056;-74
2021/08/11 06:00:29;;;;;;;7.68;5.07;;;;;;;;;;5075233;28;20111;-79
2021/08/11 06:02:57;;;;;;;11.10;5.00;;;;;;;;;;5073922;28;20066;-76
2021/08/11 06:05:23;;;;;;;11.25;4.57;;;;;;;;;;5073248;28;20474;-79
2021/08/11 06:07:49;;;;;;;6.07;4.30;;;;;;;;;;5074600;28;20024;-77
2021/08/11 06:10:15;;;;;;;4.63;4.20;;;;;;;;;;5074134;28;20028;-78
2021/08/11 06:12:41;;;;;;;4.50;3.95;;;;;;;;;;5073067;28;20066;-78
2021/08/11 06:15:07;;;;;;;9.68;4.47;;;;;;;;;;5073038;28;20398;-83
2021/08/11 06:17:42;;;;;;;7.28;4.15;;;;;;;;;;5073752;28;20099;-78
2021/08/11 06:20:09;;;;;;;5.45;4.53;;;;;;;;;;5072846;28;20025;-77
2021/08/11 06:22:35;;;;;;;4.88;4.28;;;;;;;;;;5071917;28;20112;-78
2021/08/11 06:25:01;;;;;;;5.20;4.13;;;;;;;;;;5072395;28;20497;-79
2021/08/11 06:27:29;;;;;;;7.35;4.38;;;;;;;;;;5072962;28;20490;-77
2021/08/11 06:29:56;;;;;;;7.53;4.15;;;;;;;;;;5071504;28;20508;-74
2021/08/11 06:32:22;;;;;;;4.35;3.95;;;;;;;;;;5071952;28;20078;-73
2021/08/11 06:34:48;;;;;;;6.22;4.43;;;;;;;;;;5071808;28;20035;-73
2021/08/11 06:37:14;;;;;;;6.22;4.32;;;;;;;;;;5072783;28;20016;-74
2021/08/11 06:39:40;;;;;;;5.85;4.63;;;;;;;;;;5071853;28;20497;-75
2021/08/11 06:42:06;;;;;;;7.43;5.10;;;;;;;;;;5071842;28;20036;-75
2021/08/11 06:44:32;;;;;;;8.23;4.55;;;;;;;;;;5072215;28;20025;-75
2021/08/11 06:46:58;;;;;;;5.57;4.80;;;;;;;;;;5072045;28;20476;-73
2021/08/11 06:49:24;;;;;;;4.10;3.70;;;;;;;;;;5072214;28;20013;-75
2021/08/11 06:51:50;;;;;;;4.75;3.97;;;;;;;;;;5073214;28;20056;-77
2021/08/11 06:54:17;;;;;;;3.88;3.55;;;;;;;;;;5071412;28;20535;-77
2021/08/11 06:56:43;;;;;;;10.85;4.50;;;;;;;;;;5071937;28;20028;-78
2021/08/11 06:59:09;;;;;;;5.45;4.63;;;;;;;;;;5072201;28;20032;-76
2021/08/11 07:01:35;;;;;;;5.03;4.57;;;;;;;;;;5072114;28;20031;-75
2021/08/11 07:04:01;;;;;;;4.85;4.43;;;;;;;;;;5072625;28;20027;-75
2021/08/11 07:06:27;;;;;;;5.03;4.03;;;;;;;;;;5072734;28;20028;-77
2021/08/11 07:08:53;;;;;;;5.60;4.82;;;;;;;;;;5072527;28;20029;-76
2021/08/11 07:11:19;;;;;;;6.18;4.95;;;;;;;;;;5074958;28;20043;-74
2021/08/11 07:13:45;;;;;;;7.25;4.85;;;;;;;;;;5077284;28;20098;-78
2021/08/11 07:16:12;;;;;;;6.18;4.40;;;;;;;;;;5077128;28;20489;-76
2021/08/11 07:18:38;;;;;;;10.75;4.50;;;;;;;;;;5076446;28;20025;-75
2021/08/11 07:21:04;;;;;;;5.55;3.35;;;;;;;;;;5077152;28;20035;-76
2021/08/11 07:23:30;;;;;;;4.60;4.00;;;;;;;;;;5077438;28;20475;-76
2021/08/11 07:25:56;;;;;;;12.38;3.75;;;;;;;;;;5077711;28;20028;-75
2021/08/11 07:28:22;;;;;;;16.25;3.38;;;;;;;;;;5077917;28;20116;-78
2021/08/11 07:30:48;;;;;;;8.52;3.75;;;;;;;;;;5077908;28;20017;-77
2021/08/11 07:33:14;;;;;;;3.90;3.50;;;;;;;;;;5077001;28;20020;-76
2021/08/11 07:35:40;;;;;;;6.85;4.00;;;;;;;;;;5077594;28;20035;-76
2021/08/11 07:38:06;;;;;;;5.90;3.95;;;;;;;;;;5076369;28;20036;-74
2021/08/11 07:40:32;;;;;;;5.22;3.83;;;;;;;;;;5076042;28;20028;-75
2021/08/11 07:42:59;;;;;;;5.70;3.90;;;;;;;;;;5075599;28;20113;-74
2021/08/11 07:45:26;;;;;;;3.85;3.40;;;;;;;;;;5074889;28;20029;-75
2021/08/11 07:47:54;;;;;;;8.35;4.32;;;;;;;;;;5076744;28;20107;-76
2021/08/11 07:50:20;;;;;;;5.88;3.63;;;;;;;;;;5077297;28;20024;-77
2021/08/11 07:52:46;;;;;;;4.10;3.70;;;;;;;;;;5076324;28;20045;-76
2021/08/11 07:55:12;;;;;;;3.88;3.47;;;;;;;;;;5076786;28;20066;-75
2021/08/11 07:57:38;;;;;;;10.85;3.65;;;;;;;;;;5076096;28;20029;-75
2021/08/11 08:00:05;;;;;;;7.90;3.78;;;;;;;;;;5071258;28;20025;-76
2021/08/11 08:02:31;;;;;;;10.25;3.60;;;;;;;;;;5057793;28;20029;-77
2021/08/11 08:04:57;;;;;;;12.15;4.18;;;;;;;;;;5058295;28;20017;-77
2021/08/11 08:07:24;;;;;;;6.72;3.88;;;;;;;;;;5056682;28;20056;-75
2021/08/11 08:09:50;;;;;;;8.43;3.92;;;;;;;;;;5057847;28;20055;-75
2021/08/11 08:12:16;;;;;;;8.30;4.07;;;;;;;;;;5054964;28;20059;-76
2021/08/11 08:14:42;;;;;;;10.95;4.63;;;;;;;;;;5068820;28;20379;-75
2021/08/11 08:17:08;;;;;;;10.85;4.13;;;;;;;;;;5076786;28;20021;-78
2021/08/11 08:19:34;;;;;;;10.02;4.75;;;;;;;;;;5074255;28;20052;-75
2021/08/11 08:22:00;;;;;;;7.05;5.28;;;;;;;;;;5075387;28;20063;-74
2021/08/11 08:24:26;;;;;;;19.25;5.63;;;;;;;;;;5076112;28;20035;-85
2021/08/11 08:26:53;;;;;;;10.05;5.88;;;;;;;;;;5077725;28;20028;-78
2021/08/11 08:29:19;;;;;;;7.72;5.85;;;;;;;;;;5078384;28;20469;-82
2021/08/11 08:31:45;;;;;;;8.40;5.10;;;;;;;;;;5078502;28;20032;-77
2021/08/11 08:34:11;;;;;;;5.97;5.38;;;;;;;;;;5070894;28;20056;-81
2021/08/11 08:36:37;;;;;;;4.85;4.45;;;;;;;;;;5057600;28;20020;-77
2021/08/11 08:39:03;;;;;;;18.95;5.47;;;;;;;;;;5055903;28;20032;-77
2021/08/11 08:41:29;;;;;;;6.07;5.47;;;;;;;;;;5054744;28;20025;-76
2021/08/11 08:43:55;;;;;;;6.30;5.35;;;;;;;;;;5056813;28;20033;-76
2021/08/11 08:46:21;;;;;;;6.78;5.97;;;;;;;;;;5055993;28;20029;-71
2021/08/11 08:48:47;;;;;;;8.68;5.60;;;;;;;;;;5055812;28;20025;-72
2021/08/11 08:51:14;;;;;;;7.43;5.97;;;;;;;;;;5056464;28;20036;-77
2021/08/11 08:53:40;;;;;;;5.43;4.90;;;;;;;;;;5055604;28;20029;-75
2021/08/11 08:56:06;;;;;;;6.22;4.85;;;;;;;;;;5053374;28;20057;-74
2021/08/11 08:58:33;;;;;;;5.32;4.88;;;;;;;;;;5053733;28;20395;-73
2021/08/11 09:00:59;;;;;;;5.38;4.57;;;;;;;;;;5054135;28;20021;-75
2021/08/11 09:03:25;;;;;;;8.85;5.40;;;;;;;;;;5055185;28;20048;-78
2021/08/11 09:05:51;;;;;;;5.78;4.55;;;;;;;;;;5055007;28;20386;-79
2021/08/11 09:08:17;;;;;;;6.30;5.35;;;;;;;;;;5054183;28;20047;-76
2021/08/11 09:10:43;;;;;;;6.72;5.10;;;;;;;;;;5055433;28;20025;-75
2021/08/11 09:13:13;;;;;;;6.32;4.68;;;;;;;;;;5054269;28;20108;-75
2021/08/11 09:15:39;;;;;;;4.85;4.35;;;;;;;;;;5055377;28;20021;-74
2021/08/11 09:18:21;;;;;;;8.02;5.43;;;;;;;;;;5054373;28;20021;-73
2021/08/11 09:21:11;;;;;;;11.10;5.35;;;;;;;;;;5055319;28;20036;-76
2021/08/11 09:23:40;;;;;;;5.68;5.15;;;;;;;;;;5045923;28;20374;-79
2021/08/11 09:26:08;;;;;;;8.27;4.50;;;;;;;;;;5065106;28;20025;-72
2021/08/11 09:28:35;;;;;;;7.20;4.97;;;;;;;;;;5060677;28;20032;-72
2021/08/11 09:31:01;;;;;;;7.00;5.95;;;;;;;;;;5063327;28;20033;-74
2021/08/11 09:33:27;;;;;;;5.28;4.70;;;;;;;;;;5061607;28;20146;-74
2021/08/11 09:35:54;;;;;;;4.70;4.22;;;;;;;;;;5064325;28;20025;-73
2021/08/11 09:38:20;;;;;;;7.15;5.60;;;;;;;;;;5063446;28;20389;-75
2021/08/11 09:40:47;;;;;;;15.88;6.10;;;;;;;;;;5064168;28;20032;-76
2021/08/11 09:43:16;;;;;;;5.40;4.78;;;;;;;;;;5064019;28;20045;-80
2021/08/11 09:45:43;;;;;;;6.80;5.15;;;;;;;;;;5062932;28;20021;-78
2021/08/11 09:48:09;;;;;;;5.28;4.78;;;;;;;;;;5065110;28;20021;-75
2021/08/11 09:50:37;;;;;;;6.07;4.97;;;;;;;;;;5061818;28;20021;-74
2021/08/11 09:53:04;;;;;;;6.00;5.28;;;;;;;;;;5063298;28;20040;-74
2021/08/11 09:55:30;;;;;;;6.05;5.07;;;;;;;;;;4989652;28;2044271;-74
2021/08/11 09:57:56;;;;;;;9.02;5.53;;;;;;;;;;5061833;28;20455;-77
2021/08/11 10:00:22;;;;;;;7.43;5.03;;;;;;;;;;5063435;28;20020;-76
2021/08/11 10:03:01;;;;;;;7.07;5.15;;;;;;;;;;5062370;28;20103;-76
2021/08/11 10:05:32;;;;;;;6.57;5.97;;;;;;;;;;5070167;28;20032;-76
2021/08/11 10:07:58;;;;;;;6.97;5.28;;;;;;;;;;5072507;28;20081;-77
2021/08/11 10:10:24;;;;;;;5.47;4.90;;;;;;;;;;5072692;28;20020;-73
2021/08/11 10:12:52;;;;;;;6.72;5.28;;;;;;;;;;5072090;28;20036;-75
2021/08/11 10:15:18;;;;;;;6.07;5.45;;;;;;;;;;5072250;28;20024;-75
2021/08/11 10:17:44;;;;;;;12.50;6.00;;;;;;;;;;5069398;28;20028;-73
2021/08/11 10:20:11;;;;;;;5.85;5.35;;;;;;;;;;5072402;28;20027;-75
2021/08/11 10:22:39;;;;;;;6.28;5.07;;;;;;;;;;5072596;28;20329;-75
2021/08/11 10:25:05;;;;;;;5.03;4.40;;;;;;;;;;5062025;28;20028;-78
2021/08/11 10:27:32;;;;;;;7.88;4.93;;;;;;;;;;5062713;28;20031;-75
2021/08/11 10:29:58;;;;;;;8.27;4.90;;;;;;;;;;5063039;28;20033;-77
2021/08/11 10:32:24;;;;;;;5.75;4.72;;;;;;;;;;5060456;28;20047;-75
2021/08/11 10:34:53;;;;;;;8.02;6.18;;;;;;;;;;5053471;28;20021;-74
2021/08/11 10:37:19;;;;;;;9.57;5.43;;;;;;;;;;5053841;28;20033;-74
2021/08/11 10:39:46;;;;;;;15.63;5.70;;;;;;;;;;5055948;28;20108;-73
2021/08/11 10:42:14;;;;;;;5.30;4.80;;;;;;;;;;5061813;28;20103;-73
2021/08/11 10:44:40;;;;;;;7.15;4.82;;;;;;;;;;5061747;28;20029;-73
2021/08/11 10:47:07;;;;;;;14.50;4.90;;;;;;;;;;5073304;28;20059;-74
2021/08/11 10:49:33;;;;;;;7.72;5.65;;;;;;;;;;5059999;28;20102;-75
2021/08/11 10:52:14;;;;;;;5.72;5.18;;;;;;;;;;5077382;28;20079;-73
2021/08/11 10:54:58;;;;;;;11.18;6.25;;;;;;;;;;5077551;28;20575;-74
2021/08/11 10:57:44;;;;;;;7.35;5.13;;;;;;;;;;5077355;28;20025;-74
2021/08/11 11:00:11;;;;;;;10.70;5.25;;;;;;;;;;5076716;28;20386;-73
2021/08/11 11:02:43;;;;;;;7.38;5.47;;;;;;;;;;5077927;28;20035;-74
2021/08/11 11:05:08;;;;;;;;;;;;;;;;;;5077313;28;20113;-74
2021/08/11 11:07:35;;;;;;;7.30;5.35;;;;;;;;;;5077227;28;20305;-75
2021/08/11 11:10:21;;;;;;;7.70;4.85;;;;;;;;;;5077339;28;20035;-75
2021/08/11 11:12:47;;;;;;;6.20;4.47;;;;;;;;;;5062345;28;20072;-73
2021/08/11 11:15:13;;;;;;;14.65;5.57;;;;;;;;;;5077310;28;20067;-73
2021/08/11 11:17:59;;;;;;;5.22;4.78;;;;;;;;;;5076871;28;20029;-75
2021/08/11 11:20:25;;;;;;;8.00;4.30;;;;;;;;;;5064463;28;20033;-75
2021/08/11 11:22:52;;;;;;;5.35;4.82;;;;;;;;;;5072348;28;20025;-74
2021/08/11 11:25:19;;;;;;;12.32;5.25;;;;;;;;;;5056251;28;20060;-73
2021/08/11 11:27:53;;;;;;;6.05;5.40;;;;;;;;;;5057003;28;20040;-74
2021/08/11 11:30:39;;;;;;;6.65;5.95;;;;;;;;;;5056178;28;20107;-74
2021/08/11 11:33:30;;;;;;;6.00;5.20;;;;;;;;;;5042195;28;20065;-74
2021/08/11 11:36:16;;;;;;;5.78;5.13;;;;;;;;;;5049586;28;20024;-77
2021/08/11 11:39:02;;;;;;;6.45;5.18;;;;;;;;;;5052594;28;20032;-75
2021/08/11 11:41:28;;;;;;;7.90;5.03;;;;;;;;;;5053685;28;20103;-75
2021/08/11 11:43:56;;;;;;;12.73;6.50;;;;;;;;;;5066137;28;20032;-74
2021/08/11 11:46:42;;;;;;;8.23;5.35;;;;;;;;;;5063079;28;20070;-72
2021/08/11 11:49:23;;;;;;;7.55;5.38;;;;;;;;;;5053378;28;20032;-73
2021/08/11 11:51:49;;;;;;;5.60;5.03;;;;;;;;;;5073009;28;20083;-73
2021/08/11 11:54:15;;;;;;;7.13;5.40;;;;;;;;;;5074436;28;20052;-74
2021/08/11 11:56:43;;;;;;;6.15;5.60;;;;;;;;;;5074663;28;20024;-74
2021/08/11 11:59:09;;;;;;;6.60;5.57;;;;;;;;;;5075156;28;20478;-78
2021/08/11 12:01:36;;;;;;;5.70;5.20;;;;;;;;;;5074901;28;20047;-74
2021/08/11 12:04:02;;;;;;;6.18;5.05;;;;;;;;;;5074281;28;20382;-75
2021/08/11 12:06:45;;;;;;;5.93;5.32;;;;;;;;;;5074200;28;20028;-75
2021/08/11 12:09:11;;;;;;;7.68;5.82;;;;;;;;;;5070537;28;20344;-76
2021/08/11 12:11:37;;;;;;;5.95;4.75;;;;;;;;;;5074617;28;20031;-75
2021/08/11 12:14:03;;;;;;;11.57;5.28;;;;;;;;;;5069106;28;20020;-72
2021/08/11 12:16:37;;;;;;;5.13;4.63;;;;;;;;;;5074662;28;20040;-74
2021/08/11 12:19:11;;;;;;;6.55;5.80;;;;;;;;;;5069112;28;20113;-74
2021/08/11 12:21:38;;;;;;;5.30;4.50;;;;;;;;;;5075002;28;20478;-74
2021/08/11 12:24:04;;;;;;;7.85;5.13;;;;;;;;;;5075290;28;20028;-72
2021/08/11 12:26:30;;;;;;;6.32;5.43;;;;;;;;;;5075701;28;20359;-71
2021/08/11 12:28:58;;;;;;;6.38;4.82;;;;;;;;;;5075668;28;20025;-74
2021/08/11 12:31:25;;;;;;;11.20;4.50;;;;;;;;;;5075345;28;20033;-77
2021/08/11 12:33:52;;;;;;;21.38;4.95;;;;;;;;;;5075082;28;20028;-74
2021/08/11 12:36:21;;;;;;;5.78;4.57;;;;;;;;;;5075404;28;20032;-75
2021/08/11 12:39:07;;;;;;;7.13;4.68;;;;;;;;;;5075830;28;20021;-76
2021/08/11 12:41:34;;;;;;;6.65;5.05;;;;;;;;;;5060684;28;20035;-74
2021/08/11 12:44:01;;;;;;;5.32;4.70;;;;;;;;;;5074115;28;20047;-74
2021/08/11 12:46:47;;;;;;;6.07;5.15;;;;;;;;;;5073938;28;20027;-73
2021/08/11 12:49:14;;;;;;;5.53;4.60;;;;;;;;;;5048493;28;20021;-76
2021/08/11 12:51:41;;;;;;;5.32;4.65;;;;;;;;;;5064721;28;20063;-79
2021/08/11 12:54:08;;;;;;;6.63;4.53;;;;;;;;;;5063613;28;20036;-77
2021/08/11 12:56:34;;;;;;;7.40;5.10;;;;;;;;;;5062725;28;20029;-75
2021/08/11 12:59:05;;;;;;;6.55;5.95;;;;;;;;;;5065940;28;20073;-75
2021/08/11 13:01:46;;;;;;;5.57;4.80;;;;;;;;;;5063206;28;20031;-76
2021/08/11 13:04:25;;;;;;;5.70;5.07;;;;;;;;;;5072514;28;20574;-78
2021/08/11 13:06:52;;;;;;;5.82;4.45;;;;;;;;;;5069333;28;20024;-78
2021/08/11 13:09:26;;;;;;;6.30;4.55;;;;;;;;;;5072674;28;20048;-78
2021/08/11 13:11:55;;;;;;;5.05;4.40;;;;;;;;;;5074051;28;20040;-79
2021/08/11 13:14:41;;;;;;;5.50;4.22;;;;;;;;;;5074335;28;20020;-79
2021/08/11 13:17:07;;;;;;;5.55;4.47;;;;;;;;;;5046998;28;20381;-76
2021/08/11 13:19:33;;;;;;;4.95;4.55;;;;;;;;;;5061733;28;20073;-80
2021/08/11 13:21:59;;;;;;;4.93;4.45;;;;;;;;;;5064566;28;20021;-75
2021/08/11 13:24:25;;;;;;;5.15;4.28;;;;;;;;;;5059539;28;20051;-74
2021/08/11 13:26:56;;;;;;;6.50;4.97;;;;;;;;;;5054849;28;20025;-75
2021/08/11 13:29:25;;;;;;;4.90;4.15;;;;;;;;;;5054316;28;20021;-76
2021/08/11 13:31:51;;;;;;;7.20;4.70;;;;;;;;;;5058810;28;20067;-76
2021/08/11 13:34:17;;;;;;;4.32;3.92;;;;;;;;;;5062083;28;20111;-75
2021/08/11 13:36:43;;;;;;;9.45;4.90;;;;;;;;;;5063414;28;20024;-73
2021/08/11 13:39:09;;;;;;;5.07;4.55;;;;;;;;;;5063325;28;20074;-74
2021/08/11 13:41:35;;;;;;;5.90;5.38;;;;;;;;;;5064692;28;20021;-74
2021/08/11 13:44:01;;;;;;;4.90;4.25;;;;;;;;;;5066043;28;20032;-75
2021/08/11 13:46:28;;;;;;;5.32;4.82;;;;;;;;;;5062157;28;20482;-76
2021/08/11 13:48:54;;;;;;;5.90;4.97;;;;;;;;;;5064487;28;20151;-76
2021/08/11 13:51:21;;;;;;;5.60;4.38;;;;;;;;;;5073905;28;20031;-78
2021/08/11 13:53:47;;;;;;;4.82;4.28;;;;;;;;;;5073980;28;20382;-71
2021/08/11 13:56:13;;;;;;;6.95;4.57;;;;;;;;;;5073653;28;20052;-75
2021/08/11 13:58:39;;;;;;;6.32;4.97;;;;;;;;;;5073839;28;20027;-75
2021/08/11 14:01:06;;;;;;;5.38;4.35;;;;;;;;;;5073699;28;20048;-75
2021/08/11 14:03:32;;;;;;;5.55;3.90;;;;;;;;;;5073974;28;20070;-77
2021/08/11 14:05:59;;;;;;;5.07;4.57;;;;;;;;;;5074404;28;20497;-76
2021/08/11 14:08:25;;;;;;;10.00;4.47;;;;;;;;;;5073505;28;20050;-75
2021/08/11 14:10:51;;;;;;;7.25;5.10;;;;;;;;;;5073135;28;20024;-75
2021/08/11 14:13:17;;;;;;;6.70;5.30;;;;;;;;;;5074070;28;20028;-75
2021/08/11 14:15:43;;;;;;;5.93;4.72;;;;;;;;;;5072558;28;20028;-75
2021/08/11 14:18:09;;;;;;;12.25;4.93;;;;;;;;;;5073891;28;20596;-75
2021/08/11 14:20:35;;;;;;;10.20;5.63;;;;;;;;;;5073538;28;20020;-75
2021/08/11 14:23:01;;;;;;;6.22;4.55;;;;;;;;;;5074035;28;20024;-75
2021/08/11 14:25:27;;;;;;;6.57;5.20;;;;;;;;;;5073998;28;20024;-76
2021/08/11 14:27:53;;;;;;;6.00;4.95;;;;;;;;;;5073726;28;20379;-73
2021/08/11 14:30:19;;;;;;;13.85;5.38;;;;;;;;;;5073632;28;20021;-76
2021/08/11 14:32:46;;;;;;;5.75;5.00;;;;;;;;;;5073543;28;20033;-76
2021/08/11 14:35:14;;;;;;;9.20;5.18;;;;;;;;;;5073835;28;20061;-73
2021/08/11 14:37:40;;;;;;;5.55;4.47;;;;;;;;;;5073699;28;20031;-79
2021/08/11 14:40:07;;;;;;;5.65;4.45;;;;;;;;;;5073873;28;20029;-73
2021/08/11 14:42:33;;;;;;;9.43;5.32;;;;;;;;;;5073276;28;20047;-79